KSNY/SNY METAR and TAF weather

Enter ICAO airport designator
Station Type Date Time Source
KSNY METAR 2022/01/28 23:53 UTC NOAA

KSNY 282353Z AUTO 28011KT 10SM CLR 03/M10 A3024 RMK AO2 SLP270 T00281100 10083 20028 58009


Station Type Date Time Source
KSNY Decoded METAR 2022/01/28 23:53 UTC NOAA

SIDNEY MUNICIPAL AIRPORT, NE, United States (KSNY) 41-06N 102-59W 1307M
Jan 28, 2022 - 06:53 PM EST / 2022.01.28 2353 UTC
Wind: from the W (280 degrees) at 13 MPH (11 KT):0
Visibility: 10 mile(s):0
Sky conditions: clear
Temperature: 37.0 F (2.8 C)
Dew Point: 14.0 F (-10.0 C)
Relative Humidity: 38%
Pressure (altimeter): 30.24 in. Hg (1024 hPa)
Pressure tendency: 0.03 inches (0.9 hPa) lower than three hours ago
ob: KSNY 282353Z AUTO 28011KT 10SM CLR 03/M10 A3024 RMK AO2 SLP270 T00281100 10083 20028 58009
cycle: 0

Station Type Date Time Source
KSNY TAF 2022/01/28 18:24 UTC NOAA

TAF KSNY 281720Z 2818/2918 29015G25KT P6SM SKC
FM290100 29014KT P6SM SKC

Example: see airport list